Time;durP1;ratioP1;P1;durP2;ratioP2;P2;SDS_P1;SDS_P2;PMS_P1;PMS_P2;Temp;Humidity;BMP_temperature;BMP_pressure;BME280_temperature;BME280_humidity;BME280_pressure;Samples;Min_cycle;Max_cycle;Signal;HPM_P1;HPM_P2
2021/09/22 04:02:33;;;;;;;14.25;5.70;;;11.50;99.90;;;;;;4989805;23;20253;-71
2021/09/22 04:05:00;;;;;;;18.40;5.30;;;11.50;99.90;;;;;;4902151;29;20242;-71
2021/09/22 04:07:27;;;;;;;10.45;4.63;;;11.50;99.90;;;;;;4918384;29;20218;-71
2021/09/22 04:09:53;;;;;;;17.35;4.20;;;11.50;99.90;;;;;;4918523;29;20270;-71
2021/09/22 04:12:20;;;;;;;15.30;4.47;;;11.50;99.90;;;;;;4918221;29;20234;-71
2021/09/22 04:14:46;;;;;;;10.88;4.95;;;11.50;99.90;;;;;;4918074;29;20274;-72
2021/09/22 04:17:13;;;;;;;14.82;5.07;;;11.50;99.90;;;;;;4917498;29;20215;-73
2021/09/22 04:19:41;;;;;;;16.70;4.70;;;11.50;99.90;;;;;;4917782;29;20363;-74
2021/09/22 04:22:08;;;;;;;24.20;4.82;;;11.50;99.90;;;;;;4917727;29;20282;-73
2021/09/22 04:24:34;;;;;;;15.95;4.75;;;11.50;99.90;;;;;;4918061;29;20231;-73
2021/09/22 04:27:01;;;;;;;14.60;4.20;;;11.50;99.90;;;;;;4917720;29;20262;-74
2021/09/22 04:29:28;;;;;;;14.57;4.40;;;11.50;99.90;;;;;;4917849;29;20214;-73
2021/09/22 04:31:55;;;;;;;15.27;5.00;;;11.50;99.90;;;;;;4916992;29;20594;-73
2021/09/22 04:34:22;;;;;;;17.38;5.47;;;11.50;99.90;;;;;;4917903;29;20283;-73
2021/09/22 04:36:50;;;;;;;17.92;4.70;;;11.50;99.90;;;;;;4916967;29;20229;-72
2021/09/22 04:39:17;;;;;;;12.85;4.20;;;11.50;99.90;;;;;;4917320;29;20215;-72
2021/09/22 04:41:43;;;;;;;18.98;4.75;;;11.50;99.90;;;;;;4880254;29;20335;-72
2021/09/22 04:44:10;;;;;;;24.13;4.70;;;11.50;99.90;;;;;;4879889;29;20284;-72
2021/09/22 04:46:37;;;;;;;14.50;4.10;;;11.50;99.90;;;;;;4879166;29;20212;-72
2021/09/22 04:49:05;;;;;;;9.05;4.40;;;11.50;99.90;;;;;;4880079;29;20626;-72
2021/09/22 04:51:32;;;;;;;20.15;5.13;;;11.50;99.90;;;;;;4879655;29;20236;-72
2021/09/22 04:54:00;;;;;;;15.38;5.75;;;11.50;99.90;;;;;;4879874;29;20216;-72
2021/09/22 04:56:26;;;;;;;12.40;5.00;;;11.50;99.90;;;;;;4879756;29;20319;-72
2021/09/22 04:58:53;;;;;;;13.80;5.15;;;11.50;99.90;;;;;;4879876;29;20216;-72
2021/09/22 05:01:20;;;;;;;12.88;4.60;;;11.40;99.90;;;;;;4878281;29;20240;-75
2021/09/22 05:03:46;;;;;;;16.23;5.15;;;11.50;99.90;;;;;;4879459;29;20809;-72
2021/09/22 05:06:13;;;;;;;14.73;6.20;;;11.40;99.90;;;;;;4879804;29;20211;-71
2021/09/22 05:08:40;;;;;;;17.92;5.30;;;11.40;99.90;;;;;;4879794;29;20219;-71
2021/09/22 05:11:08;;;;;;;14.35;6.60;;;11.40;99.90;;;;;;4916749;29;20635;-72
2021/09/22 05:13:34;;;;;;;16.30;6.10;;;11.40;99.90;;;;;;4917295;29;20210;-72
2021/09/22 05:16:01;;;;;;;9.63;4.93;;;11.50;99.90;;;;;;4915657;29;20214;-72
2021/09/22 05:18:28;;;;;;;14.75;5.40;;;11.50;99.90;;;;;;4916682;29;20242;-72
2021/09/22 05:20:54;;;;;;;21.70;6.22;;;11.50;99.90;;;;;;4916702;29;20305;-71
2021/09/22 05:23:21;;;;;;;14.60;7.10;;;11.50;99.90;;;;;;4916402;29;20321;-72
2021/09/22 05:25:48;;;;;;;17.80;6.70;;;11.60;99.90;;;;;;4917006;29;20257;-72
2021/09/22 05:28:16;;;;;;;14.40;7.82;;;11.60;99.90;;;;;;4916688;29;20217;-72
2021/09/22 05:30:43;;;;;;;15.02;5.68;;;11.50;99.90;;;;;;4888686;29;20239;-72
2021/09/22 05:33:11;;;;;;;17.15;6.35;;;11.60;99.90;;;;;;4878299;29;20340;-72
2021/09/22 05:35:38;;;;;;;13.05;5.28;;;11.60;99.90;;;;;;4878891;29;20211;-72
2021/09/22 05:38:05;;;;;;;6.38;4.55;;;11.60;99.90;;;;;;4878745;29;20212;-72
2021/09/22 05:40:32;;;;;;;13.70;5.75;;;11.60;99.90;;;;;;4879194;29;20303;-72
2021/09/22 05:42:59;;;;;;;12.48;4.80;;;11.60;99.90;;;;;;4879046;29;20287;-72
2021/09/22 05:45:27;;;;;;;18.65;6.03;;;11.70;99.90;;;;;;4879069;29;20235;-72
2021/09/22 05:47:54;;;;;;;12.13;5.25;;;11.70;99.90;;;;;;4878460;29;20248;-72
2021/09/22 05:50:20;;;;;;;13.60;6.18;;;11.80;99.90;;;;;;4878756;29;20276;-72
2021/09/22 05:52:47;;;;;;;13.40;5.35;;;11.80;99.90;;;;;;4878225;29;20683;-72
2021/09/22 05:55:14;;;;;;;11.27;5.95;;;11.90;99.90;;;;;;4878911;29;20244;-72
2021/09/22 05:57:42;;;;;;;13.52;5.35;;;11.90;99.90;;;;;;4880246;29;20223;-72
2021/09/22 06:00:10;;;;;;;9.77;5.00;;;12.00;99.90;;;;;;4878850;29;20204;-72
2021/09/22 06:02:38;;;;;;;8.38;5.35;;;12.00;99.90;;;;;;4877535;29;20231;-72
2021/09/22 06:05:06;;;;;;;11.43;5.60;;;12.10;99.90;;;;;;4878825;29;20284;-71
2021/09/22 06:07:32;;;;;;;14.00;5.57;;;12.10;99.90;;;;;;4878412;29;20747;-71
2021/09/22 06:09:59;;;;;;;16.43;7.07;;;12.20;99.90;;;;;;4879047;29;20882;-72
2021/09/22 06:12:26;;;;;;;13.47;5.53;;;12.30;99.90;;;;;;4878226;29;20495;-72
2021/09/22 06:14:52;;;;;;;11.67;5.20;;;12.30;99.90;;;;;;4878917;29;20501;-72
2021/09/22 06:17:19;;;;;;;15.15;5.57;;;12.30;99.90;;;;;;4884470;29;20478;-72
2021/09/22 06:19:47;;;;;;;6.40;5.00;;;12.40;99.90;;;;;;4916402;29;20496;-72
2021/09/22 06:22:14;;;;;;;7.45;5.45;;;12.50;99.90;;;;;;4915406;29;20234;-72
2021/09/22 06:24:41;;;;;;;10.23;5.27;;;12.50;99.90;;;;;;4916311;29;20379;-72
2021/09/22 06:27:08;;;;;;;10.40;5.80;;;12.60;99.90;;;;;;4918267;29;20939;-71
2021/09/22 06:29:34;;;;;;;5.60;5.20;;;12.60;99.90;;;;;;4920145;29;20478;-72
2021/09/22 06:32:01;;;;;;;7.03;5.70;;;12.60;99.90;;;;;;4919200;29;20494;-72
2021/09/22 06:34:28;;;;;;;9.02;5.35;;;12.70;99.90;;;;;;4919682;29;20529;-72
2021/09/22 06:36:56;;;;;;;11.37;5.83;;;12.80;99.90;;;;;;4919689;29;20237;-72
2021/09/22 06:39:22;;;;;;;8.23;5.97;;;12.80;99.90;;;;;;4918225;29;20470;-72
2021/09/22 06:41:49;;;;;;;14.33;7.77;;;12.90;99.90;;;;;;4898956;29;20495;-72
2021/09/22 06:44:15;;;;;;;10.63;5.33;;;13.00;99.90;;;;;;4901466;29;20538;-72
2021/09/22 06:46:42;;;;;;;8.60;5.83;;;13.10;99.90;;;;;;4900431;29;20542;-72
2021/09/22 06:49:09;;;;;;;8.90;6.27;;;13.20;99.90;;;;;;4900855;29;20467;-72
2021/09/22 06:51:35;;;;;;;8.47;5.53;;;13.30;99.90;;;;;;4900829;29;20569;-72
2021/09/22 06:54:03;;;;;;;7.27;5.97;;;13.30;99.90;;;;;;4901109;29;20519;-72
2021/09/22 06:56:30;;;;;;;5.67;5.03;;;13.40;99.90;;;;;;4900758;29;20484;-72
2021/09/22 06:58:57;;;;;;;12.53;5.80;;;13.50;99.90;;;;;;4900867;29;20964;-72
2021/09/22 07:01:23;;;;;;;7.60;5.70;;;13.50;99.90;;;;;;4899952;29;20533;-73
2021/09/22 07:03:50;;;;;;;5.90;5.07;;;13.60;99.90;;;;;;4900378;29;20495;-72
2021/09/22 07:06:17;;;;;;;8.83;5.60;;;13.60;99.90;;;;;;4900476;29;20474;-71
2021/09/22 07:08:43;;;;;;;9.53;5.33;;;13.70;99.90;;;;;;4901252;29;20494;-71
2021/09/22 07:11:12;;;;;;;11.57;6.73;;;13.70;99.90;;;;;;4900987;29;20559;-73
2021/09/22 07:13:38;;;;;;;11.63;5.87;;;13.80;99.90;;;;;;4900512;29;20495;-71
2021/09/22 07:16:08;;;;;;;7.97;5.37;;;13.80;99.90;;;;;;4900145;29;20471;-72
2021/09/22 07:18:35;;;;;;;8.10;5.53;;;13.80;99.90;;;;;;4900064;29;20562;-72
2021/09/22 07:21:05;;;;;;;7.23;5.50;;;13.80;99.90;;;;;;4900395;29;20487;-72
2021/09/22 07:23:31;;;;;;;9.60;7.13;;;13.80;99.90;;;;;;4900271;29;20473;-72
2021/09/22 07:25:58;;;;;;;6.00;5.40;;;13.80;99.90;;;;;;4900248;29;20554;-71
2021/09/22 07:28:26;;;;;;;7.33;6.43;;;13.80;99.90;;;;;;4900315;29;20932;-72
2021/09/22 07:30:53;;;;;;;9.67;6.47;;;13.80;99.90;;;;;;4881044;29;20536;-72
2021/09/22 07:33:20;;;;;;;10.10;5.73;;;13.80;99.90;;;;;;4880915;29;20471;-71
2021/09/22 07:35:48;;;;;;;7.10;6.37;;;13.90;99.90;;;;;;4881526;29;20472;-72
2021/09/22 07:38:15;;;;;;;16.47;6.83;;;13.90;99.90;;;;;;4880473;29;20473;-72
2021/09/22 07:40:41;;;;;;;8.50;6.30;;;13.90;99.90;;;;;;4881034;29;20555;-72
2021/09/22 07:43:08;;;;;;;6.73;5.70;;;13.90;99.90;;;;;;4881336;29;20884;-72
2021/09/22 07:45:36;;;;;;;9.03;6.77;;;14.00;99.90;;;;;;4882081;29;20568;-72
2021/09/22 07:48:03;;;;;;;12.50;6.30;;;14.10;99.90;;;;;;4881483;29;21028;-72
2021/09/22 07:50:30;;;;;;;6.17;5.57;;;14.30;99.90;;;;;;4881813;29;20487;-72
2021/09/22 07:52:57;;;;;;;6.70;5.43;;;14.40;99.90;;;;;;4880918;29;20475;-72
2021/09/22 07:55:24;;;;;;;6.60;5.77;;;14.50;99.90;;;;;;4881180;29;20527;-72
2021/09/22 07:57:54;;;;;;;8.53;5.10;;;14.60;99.90;;;;;;4880675;29;20480;-72
2021/09/22 08:00:21;;;;;;;5.80;5.30;;;14.70;99.90;;;;;;4880976;29;20472;-73
2021/09/22 08:02:49;;;;;;;8.27;5.27;;;14.80;99.90;;;;;;4880052;29;20469;-72
2021/09/22 08:05:16;;;;;;;7.73;5.17;;;14.80;99.90;;;;;;4881952;29;20488;-72
2021/09/22 08:07:43;;;;;;;10.30;5.87;;;14.90;99.90;;;;;;4880811;29;20556;-73
2021/09/22 08:10:11;;;;;;;6.50;5.77;;;14.90;99.90;;;;;;4881053;29;20949;-73
2021/09/22 08:12:38;;;;;;;8.50;5.30;;;15.00;99.90;;;;;;4880798;29;20469;-73
2021/09/22 08:15:05;;;;;;;7.30;5.50;;;15.10;99.90;;;;;;4880960;29;20965;-73
2021/09/22 08:17:32;;;;;;;8.83;4.87;;;15.10;99.90;;;;;;4879986;29;20484;-73
2021/09/22 08:20:00;;;;;;;5.00;4.53;;;15.20;99.90;;;;;;4881158;29;20472;-73
2021/09/22 08:22:28;;;;;;;4.70;4.30;;;15.20;99.90;;;;;;4880337;29;20482;-73
2021/09/22 08:24:55;;;;;;;12.00;4.20;;;15.20;99.90;;;;;;4880691;29;20496;-73
2021/09/22 08:27:22;;;;;;;7.97;4.23;;;15.10;99.90;;;;;;4880802;29;20468;-73
2021/09/22 08:29:48;;;;;;;6.90;5.27;;;15.20;99.90;;;;;;4880285;29;20557;-73
2021/09/22 08:32:15;;;;;;;5.77;3.93;;;15.10;99.90;;;;;;4879476;29;20504;-73
2021/09/22 08:34:42;;;;;;;9.60;4.60;;;15.10;99.90;;;;;;4900345;29;20470;-72
2021/09/22 08:37:10;;;;;;;10.83;6.70;;;15.10;99.90;;;;;;4918858;29;20462;-72
2021/09/22 08:39:36;;;;;;;8.97;6.17;;;15.20;99.90;;;;;;4913910;29;20556;-72
2021/09/22 08:42:05;;;;;;;8.27;4.53;;;15.30;99.90;;;;;;4881454;29;20548;-70
2021/09/22 08:44:32;;;;;;;10.23;4.53;;;15.40;99.90;;;;;;4880943;29;20496;-71
2021/09/22 08:47:00;;;;;;;8.37;4.43;;;15.40;99.90;;;;;;4879734;29;20974;-71
2021/09/22 08:49:27;;;;;;;8.17;4.20;;;15.50;99.90;;;;;;4879446;29;20488;-73
2021/09/22 08:51:53;;;;;;;5.50;4.53;;;15.60;99.90;;;;;;4880634;29;20520;-74
2021/09/22 08:54:21;;;;;;;12.23;5.00;;;15.70;99.90;;;;;;4890264;29;20587;-74
2021/09/22 08:56:48;;;;;;;6.10;5.50;;;15.80;99.90;;;;;;4889486;29;20464;-73
2021/09/22 08:59:17;;;;;;;8.83;4.57;;;15.90;99.90;;;;;;4885909;29;20841;-68
2021/09/22 09:02:04;;;;;;;6.87;4.17;;;16.00;99.90;;;;;;4881890;29;20614;-68
2021/09/22 09:04:31;;;;;;;7.47;4.07;;;16.00;99.90;;;;;;4882315;29;20480;-68
2021/09/22 09:06:58;;;;;;;10.20;4.63;;;16.00;99.90;;;;;;4883702;29;20472;-68
2021/09/22 09:09:33;;;;;;;7.47;4.10;;;16.10;99.90;;;;;;4881199;29;20476;-68
2021/09/22 09:12:00;;;;;;;8.37;4.27;;;16.20;99.90;;;;;;4879925;29;20495;-68
2021/09/22 09:14:29;;;;;;;7.97;4.10;;;16.20;99.90;;;;;;4878970;29;20472;-69
2021/09/22 09:16:58;;;;;;;9.43;4.40;;;16.30;99.90;;;;;;4878287;29;20567;-68
2021/09/22 09:19:26;;;;;;;6.67;4.00;;;16.40;99.90;;;;;;4879504;29;20472;-68
2021/09/22 09:22:00;;;;;;;7.20;4.27;;;16.50;99.90;;;;;;4878637;29;21047;-68
2021/09/22 09:24:34;;;;;;;7.43;4.27;;;16.50;99.90;;;;;;4879223;29;20498;-68
2021/09/22 09:27:02;;;;;;;7.77;4.23;;;16.60;99.90;;;;;;4879365;29;20545;-68
2021/09/22 09:29:29;;;;;;;7.30;3.87;;;16.80;99.90;;;;;;4879252;29;20594;-70
2021/09/22 09:32:17;;;;;;;3.77;3.47;;;17.00;99.90;;;;;;4895551;29;20524;-71
2021/09/22 09:35:03;;;;;;;6.73;4.13;;;17.20;99.90;;;;;;4897707;29;20499;-72
2021/09/22 09:37:32;;;;;;;7.40;4.10;;;17.30;99.90;;;;;;4897694;29;20539;-71
2021/09/22 09:40:20;;;;;;;7.17;4.43;;;17.50;99.90;;;;;;4897490;29;20503;-70
2021/09/22 09:42:48;;;;;;;11.13;6.60;;;17.60;99.90;;;;;;4898210;29;20479;-72
2021/09/22 09:45:18;;;;;;;7.40;4.10;;;17.50;99.90;;;;;;4898130;29;20491;-71
2021/09/22 09:47:59;;;;;;;5.50;4.17;;;17.70;99.90;;;;;;4897172;29;20462;-71
2021/09/22 09:50:25;;;;;;;4.70;4.10;;;17.60;99.90;;;;;;4898096;29;20471;-70
2021/09/22 09:52:53;;;;;;;6.80;4.10;;;17.70;99.90;;;;;;4897500;29;20479;-71
2021/09/22 09:55:23;;;;;;;5.70;4.37;;;17.70;99.90;;;;;;4899044;29;20960;-74
2021/09/22 09:57:53;;;;;;;6.80;3.87;;;17.70;99.90;;;;;;4900813;29;20470;-75
2021/09/22 10:00:22;;;;;;;6.07;3.60;;;17.60;99.90;;;;;;4894043;29;20848;-76
2021/09/22 10:02:51;;;;;;;5.20;3.70;;;17.70;99.90;;;;;;4880174;29;20456;-76
2021/09/22 10:05:17;;;;;;;6.70;3.80;;;17.70;99.90;;;;;;4885782;29;20496;-74
2021/09/22 10:07:47;;;;;;;9.83;3.87;;;17.80;99.90;;;;;;4880113;29;20467;-75
2021/09/22 10:10:14;;;;;;;5.50;3.80;;;17.70;99.90;;;;;;4879293;29;20468;-76
2021/09/22 10:12:42;;;;;;;7.37;3.50;;;17.70;99.90;;;;;;4878779;29;20502;-75
2021/09/22 10:15:11;;;;;;;6.83;3.90;;;17.70;99.90;;;;;;4879753;29;20632;-73
2021/09/22 10:17:39;;;;;;;10.60;4.00;;;17.80;99.90;;;;;;4878004;29;20472;-74
2021/09/22 10:20:06;;;;;;;9.23;3.30;;;17.90;99.90;;;;;;4878679;29;20976;-76
2021/09/22 10:22:33;;;;;;;6.97;3.80;;;18.00;99.90;;;;;;4878552;29;20468;-76
2021/09/22 10:25:00;;;;;;;9.10;5.27;;;17.90;99.90;;;;;;4878712;29;20495;-75
2021/09/22 10:27:27;;;;;;;5.13;3.60;;;17.80;99.90;;;;;;4878438;29;20470;-73
2021/09/22 10:29:59;;;;;;;5.03;3.60;;;17.60;99.90;;;;;;4878569;29;20879;-73
2021/09/22 10:32:35;;;;;;;6.73;3.80;;;17.50;99.90;;;;;;4877665;29;20492;-73
2021/09/22 10:35:35;;;;;;;5.03;3.70;;;17.40;99.90;;;;;;4878623;29;20992;-74
2021/09/22 10:38:18;;;;;;;6.80;4.60;;;17.40;99.90;;;;;;4878762;29;20468;-74
2021/09/22 10:40:50;;;;;;;6.83;3.87;;;17.30;99.90;;;;;;4878034;29;20492;-74
2021/09/22 10:43:20;;;;;;;5.93;3.63;;;17.20;99.90;;;;;;4878631;29;20468;-74
2021/09/22 10:46:09;;;;;;;5.27;4.00;;;17.10;99.90;;;;;;4878276;29;20497;-73
2021/09/22 10:48:38;;;;;;;6.23;4.03;;;17.00;99.90;;;;;;4878342;29;20475;-73
2021/09/22 10:51:06;;;;;;;8.63;4.10;;;16.90;99.90;;;;;;4878683;29;20546;-74
2021/09/22 10:53:37;;;;;;;4.87;4.37;;;17.00;99.90;;;;;;4878445;29;20471;-75
2021/09/22 10:56:06;;;;;;;3.70;3.40;;;17.10;99.90;;;;;;4878673;29;20467;-74
2021/09/22 10:58:36;;;;;;;5.27;4.77;;;17.30;99.90;;;;;;4878110;29;21005;-74
2021/09/22 11:01:04;;;;;;;6.23;4.03;;;17.40;99.90;;;;;;4877781;29;20504;-74
2021/09/22 11:03:56;;;;;;;6.70;4.60;;;17.50;99.90;;;;;;4877867;29;20468;-74
2021/09/22 11:06:51;;;;;;;5.10;4.50;;;17.60;99.90;;;;;;4878243;29;20492;-73
2021/09/22 11:09:37;;;;;;;4.53;3.83;;;17.60;99.90;;;;;;4879783;29;20537;-74
2021/09/22 11:12:12;;;;;;;4.83;4.10;;;17.70;99.90;;;;;;4878185;29;20496;-74
2021/09/22 11:14:44;;;;;;;7.63;4.37;;;17.70;99.90;;;;;;4881326;29;20475;-74
2021/09/22 11:17:16;;;;;;;4.13;3.93;;;17.70;99.90;;;;;;4880752;29;20504;-74
2021/09/22 11:19:45;;;;;;;8.10;4.50;;;17.60;99.90;;;;;;4882578;29;20456;-74
2021/09/22 11:22:14;;;;;;;5.07;4.67;;;17.50;99.90;;;;;;4881546;29;20504;-75
2021/09/22 11:24:42;;;;;;;4.73;4.17;;;17.40;99.90;;;;;;4881473;29;20949;-74
2021/09/22 11:27:11;;;;;;;4.97;4.03;;;17.40;99.90;;;;;;4881263;29;20500;-74
2021/09/22 11:29:40;;;;;;;8.30;4.70;;;17.30;99.90;;;;;;4881639;29;20471;-74
2021/09/22 11:32:22;;;;;;;6.57;3.97;;;17.30;99.90;;;;;;4880223;29;20598;-74
2021/09/22 11:34:50;;;;;;;7.53;4.37;;;17.30;99.90;;;;;;4881425;29;20470;-74
2021/09/22 11:37:17;;;;;;;7.07;4.10;;;17.30;99.90;;;;;;4881608;29;20465;-74
2021/09/22 11:39:44;;;;;;;6.17;4.43;;;17.50;99.90;;;;;;4881843;29;20953;-74
2021/09/22 11:42:12;;;;;;;5.60;4.00;;;17.70;99.90;;;;;;4881109;29;20484;-74
2021/09/22 11:44:40;;;;;;;11.57;5.03;;;17.80;99.90;;;;;;4881380;29;20566;-75
2021/09/22 11:47:09;;;;;;;4.73;4.33;;;17.80;99.90;;;;;;4880089;29;20868;-74
2021/09/22 11:49:37;;;;;;;4.50;4.13;;;17.80;99.90;;;;;;4881091;29;20544;-72
2021/09/22 11:52:12;;;;;;;6.20;4.37;;;17.80;99.90;;;;;;4880959;29;20548;-72
2021/09/22 11:54:46;;;;;;;3.77;3.47;;;17.90;99.90;;;;;;4881422;29;20956;-71
2021/09/22 11:57:16;;;;;;;5.77;3.93;;;18.10;99.90;;;;;;4880800;29;20904;-71
2021/09/22 11:59:45;;;;;;;7.07;4.20;;;18.20;99.90;;;;;;4881439;29;20471;-72
2021/09/22 12:02:14;;;;;;;5.70;4.30;;;18.40;99.90;;;;;;4898504;29;20507;-71
2021/09/22 12:04:42;;;;;;;4.30;4.00;;;18.50;99.90;;;;;;4899823;29;20557;-71
2021/09/22 12:07:11;;;;;;;4.27;3.90;;;18.50;99.90;;;;;;4899628;29;20495;-71
2021/09/22 12:09:40;;;;;;;4.33;3.93;;;18.50;99.90;;;;;;4899651;29;20932;-71
2021/09/22 12:12:09;;;;;;;4.60;3.90;;;18.50;99.90;;;;;;4899105;29;20889;-71
2021/09/22 12:14:36;;;;;;;5.00;4.50;;;18.60;99.90;;;;;;4899603;29;20468;-72
2021/09/22 12:17:08;;;;;;;5.77;3.60;;;18.60;99.90;;;;;;4899275;29;20470;-72
2021/09/22 12:19:35;;;;;;;7.70;5.30;;;18.70;99.90;;;;;;4899591;29;20495;-72
2021/09/22 12:22:02;;;;;;;6.17;4.20;;;18.70;99.90;;;;;;4899247;29;20491;-72
2021/09/22 12:24:33;;;;;;;4.77;4.37;;;18.60;99.90;;;;;;4899138;29;20607;-72
2021/09/22 12:27:01;;;;;;;4.27;3.93;;;18.50;99.90;;;;;;4898985;29;20501;-74
2021/09/22 12:29:28;;;;;;;4.43;4.30;;;18.50;99.90;;;;;;4899477;29;20476;-75
2021/09/22 12:31:56;;;;;;;4.50;4.10;;;18.50;99.90;;;;;;4898209;29;20495;-75
2021/09/22 12:34:25;;;;;;;5.10;4.70;;;18.50;99.90;;;;;;4898682;29;20496;-74
2021/09/22 12:36:54;;;;;;;8.03;5.23;;;18.60;99.90;;;;;;4898625;29;20844;-72
2021/09/22 12:39:23;;;;;;;5.23;4.93;;;18.60;99.90;;;;;;4898647;29;20460;-74
2021/09/22 12:42:02;;;;;;;10.70;5.20;;;18.60;99.90;;;;;;4879870;29;20496;-74
2021/09/22 12:44:29;;;;;;;5.40;5.07;;;18.70;99.90;;;;;;4880376;29;20468;-74
2021/09/22 12:46:56;;;;;;;5.03;4.73;;;18.70;99.90;;;;;;4878921;29;21028;-74
2021/09/22 12:49:24;;;;;;;5.17;4.90;;;18.60;99.90;;;;;;4880376;29;20531;-74
2021/09/22 12:51:52;;;;;;;5.77;5.27;;;18.50;99.90;;;;;;4880015;29;20495;-74
2021/09/22 12:54:19;;;;;;;5.40;4.90;;;18.40;99.90;;;;;;4882745;29;20468;-74
2021/09/22 12:56:46;;;;;;;5.03;4.73;;;18.40;99.90;;;;;;4879758;29;20536;-74
2021/09/22 12:59:19;;;;;;;5.20;4.90;;;18.40;99.90;;;;;;4880782;29;20472;-74
2021/09/22 13:01:50;;;;;;;5.40;4.70;;;18.50;99.90;;;;;;4878917;29;20552;-76
2021/09/22 13:04:24;;;;;;;5.97;5.40;;;18.60;99.90;;;;;;4879821;29;20496;-74
2021/09/22 13:06:52;;;;;;;7.73;5.60;;;18.60;99.90;;;;;;4883992;29;20623;-74
2021/09/22 13:09:30;;;;;;;5.27;4.63;;;18.60;99.90;;;;;;4916841;29;20999;-73
2021/09/22 13:11:56;;;;;;;5.80;4.70;;;18.60;99.90;;;;;;4916349;29;20598;-73
2021/09/22 13:14:25;;;;;;;4.90;4.70;;;18.60;99.90;;;;;;4916795;29;20469;-73
2021/09/22 13:16:53;;;;;;;4.30;4.00;;;18.60;99.90;;;;;;4916367;29;20843;-74
2021/09/22 13:19:23;;;;;;;5.33;5.03;;;18.60;99.90;;;;;;4917398;29;20477;-74
2021/09/22 13:21:51;;;;;;;4.60;4.40;;;18.60;99.90;;;;;;4916668;29;20502;-74
2021/09/22 13:24:20;;;;;;;3.83;3.63;;;18.60;99.90;;;;;;4917125;29;20526;-74
2021/09/22 13:26:49;;;;;;;3.93;3.63;;;18.60;99.90;;;;;;4916921;29;20850;-73
2021/09/22 13:29:17;;;;;;;3.03;2.93;;;18.70;99.90;;;;;;4905329;29;20509;-74
2021/09/22 13:31:47;;;;;;;3.83;3.50;;;18.80;99.90;;;;;;4878477;29;20557;-74
2021/09/22 13:34:14;;;;;;;3.50;2.70;;;18.90;99.90;;;;;;4879313;29;20956;-74
2021/09/22 13:36:41;;;;;;;3.50;3.03;;;19.00;99.90;;;;;;4878721;29;20540;-74
2021/09/22 13:39:10;;;;;;;3.63;3.43;;;19.10;99.90;;;;;;4879423;29;20480;-74
2021/09/22 13:41:37;;;;;;;3.90;3.60;;;19.00;99.90;;;;;;4879107;29;20496;-74
2021/09/22 13:44:06;;;;;;;4.53;4.13;;;19.00;99.90;;;;;;4879337;29;20527;-74
2021/09/22 13:46:33;;;;;;;3.80;3.60;;;19.00;99.90;;;;;;4878252;29;20611;-75
2021/09/22 13:49:02;;;;;;;3.50;3.40;;;19.00;99.90;;;;;;4879497;29;20476;-75
2021/09/22 13:51:29;;;;;;;5.40;5.20;;;18.90;99.90;;;;;;4878761;29;20564;-74
2021/09/22 13:53:55;;;;;;;4.30;4.00;;;18.90;99.90;;;;;;4878966;29;20524;-74
2021/09/22 13:56:22;;;;;;;4.10;3.90;;;18.80;99.90;;;;;;4878924;29;20535;-74
2021/09/22 13:58:49;;;;;;;3.90;3.73;;;18.80;99.90;;;;;;4879638;29;20962;-74
2021/09/22 14:01:16;;;;;;;4.50;4.30;;;18.80;99.90;;;;;;4878462;29;20500;-74
2021/09/22 14:03:43;;;;;;;4.50;4.30;;;18.90;99.90;;;;;;4878289;29;20468;-74
2021/09/22 14:06:10;;;;;;;3.90;3.80;;;19.10;99.90;;;;;;4878623;29;20499;-75
2021/09/22 14:08:38;;;;;;;5.07;3.87;;;19.20;99.90;;;;;;4878896;29;20467;-74
2021/09/22 14:11:06;;;;;;;4.50;4.30;;;19.30;99.90;;;;;;4878884;29;20496;-74
2021/09/22 14:13:33;;;;;;;3.80;3.60;;;19.50;99.90;;;;;;4878332;29;20544;-75
2021/09/22 14:16:00;;;;;;;3.80;3.70;;;19.50;99.90;;;;;;4878745;29;20472;-74
2021/09/22 14:18:27;;;;;;;3.40;3.30;;;19.40;99.90;;;;;;4878248;29;20547;-74
2021/09/22 14:20:57;;;;;;;3.63;3.40;;;19.50;99.90;;;;;;4878775;29;20488;-74
2021/09/22 14:23:26;;;;;;;8.43;3.60;;;19.50;99.90;;;;;;4878259;29;20471;-74
2021/09/22 14:25:53;;;;;;;5.60;3.83;;;19.40;99.90;;;;;;4878685;29;20619;-74
2021/09/22 14:28:22;;;;;;;3.20;3.00;;;19.30;99.90;;;;;;4878849;29;20468;-74
2021/09/22 14:30:49;;;;;;;2.93;2.93;;;19.30;99.90;;;;;;4878479;29;20559;-74
2021/09/22 14:33:16;;;;;;;4.20;3.67;;;19.30;99.90;;;;;;4877489;29;20509;-74
2021/09/22 14:35:44;;;;;;;4.43;4.27;;;19.20;99.90;;;;;;4878436;29;20464;-73
2021/09/22 14:38:11;;;;;;;3.93;3.80;;;19.20;99.90;;;;;;4878550;29;20476;-74
2021/09/22 14:40:41;;;;;;;4.50;4.10;;;19.10;99.90;;;;;;4878402;29;20488;-73
2021/09/22 14:43:09;;;;;;;3.67;3.40;;;19.20;99.90;;;;;;4878124;29;20468;-74
2021/09/22 14:45:36;;;;;;;3.80;3.80;;;19.20;99.90;;;;;;4878225;29;20476;-73
2021/09/22 14:48:03;;;;;;;4.37;4.00;;;19.10;99.90;;;;;;4879942;29;21004;-74
2021/09/22 14:50:31;;;;;;;3.40;3.20;;;19.10;99.90;;;;;;4882275;29;20579;-73
2021/09/22 14:52:58;;;;;;;3.70;3.40;;;19.00;99.90;;;;;;4881853;29;20491;-74
2021/09/22 14:55:25;;;;;;;3.67;3.57;;;19.10;99.90;;;;;;4882392;29;20479;-74
2021/09/22 14:57:54;;;;;;;4.13;3.10;;;19.00;99.90;;;;;;4882115;29;20464;-74
2021/09/22 15:00:23;;;;;;;2.87;2.77;;;19.00;99.90;;;;;;4881819;29;21008;-74
2021/09/22 15:02:50;;;;;;;3.30;3.10;;;19.00;99.90;;;;;;4881288;29;20481;-74
2021/09/22 15:05:18;;;;;;;2.90;2.73;;;18.90;99.90;;;;;;4882085;29;20539;-74
2021/09/22 15:07:45;;;;;;;3.40;3.30;;;18.90;99.90;;;;;;4881637;29;21317;-74
2021/09/22 15:10:13;;;;;;;2.40;2.30;;;18.90;99.90;;;;;;4882293;29;20520;-73
2021/09/22 15:12:40;;;;;;;3.00;2.80;;;18.90;99.90;;;;;;4881386;29;20507;-74
2021/09/22 15:15:10;;;;;;;3.60;3.33;;;18.80;99.90;;;;;;4881919;29;20480;-74
2021/09/22 15:17:37;;;;;;;3.80;3.17;;;18.80;99.90;;;;;;4880777;29;20465;-74
2021/09/22 15:20:05;;;;;;;4.00;3.50;;;18.80;99.90;;;;;;4882022;29;20472;-71
2021/09/22 15:22:32;;;;;;;4.33;2.93;;;18.80;99.90;;;;;;4881520;29;20540;-71
2021/09/22 15:24:58;;;;;;;3.10;3.03;;;18.80;99.90;;;;;;4881954;29;20917;-72
2021/09/22 15:27:25;;;;;;;3.20;2.80;;;18.70;99.90;;;;;;4881259;29;20547;-72
2021/09/22 15:29:54;;;;;;;3.97;3.73;;;18.70;99.90;;;;;;4881742;29;20583;-72
2021/09/22 15:32:22;;;;;;;4.40;4.10;;;18.70;99.90;;;;;;4880370;29;20492;-71
2021/09/22 15:34:49;;;;;;;4.57;4.17;;;18.70;99.90;;;;;;4881709;29;20528;-72
2021/09/22 15:37:16;;;;;;;4.53;4.23;;;18.70;99.90;;;;;;4881051;29;20899;-74
2021/09/22 15:39:42;;;;;;;3.97;3.70;;;18.60;99.90;;;;;;4881196;29;20464;-74
2021/09/22 15:42:09;;;;;;;4.37;4.27;;;18.60;99.90;;;;;;4880738;29;20492;-74
2021/09/22 15:44:36;;;;;;;4.20;4.00;;;18.60;99.90;;;;;;4881809;29;20941;-74
2021/09/22 15:47:03;;;;;;;4.27;4.03;;;18.50;99.90;;;;;;4880016;29;21024;-75
2021/09/22 15:49:31;;;;;;;4.87;4.50;;;18.40;99.90;;;;;;4881365;29;20532;-74
2021/09/22 15:51:58;;;;;;;5.93;5.33;;;18.40;99.90;;;;;;4881222;29;20904;-72
2021/09/22 15:54:24;;;;;;;5.03;4.80;;;18.40;99.90;;;;;;4880942;29;20464;-71
2021/09/22 15:56:52;;;;;;;5.10;4.80;;;18.30;99.90;;;;;;4880824;29;20466;-72
2021/09/22 15:59:18;;;;;;;5.60;4.90;;;18.30;99.90;;;;;;4880408;29;20509;-71
2021/09/22 16:01:45;;;;;;;5.23;4.90;;;18.20;99.90;;;;;;4879719;29;20511;-72
2021/09/22 16:04:12;;;;;;;5.30;5.00;;;18.20;99.90;;;;;;4880719;29;20476;-71
2021/09/22 16:06:40;;;;;;;5.47;5.10;;;18.10;99.90;;;;;;4880172;29;20966;-72
2021/09/22 16:09:08;;;;;;;5.73;5.30;;;18.10;99.90;;;;;;4880939;29;20457;-72
2021/09/22 16:11:35;;;;;;;4.43;4.03;;;18.00;99.90;;;;;;4880789;29;20488;-72
2021/09/22 16:14:01;;;;;;;4.20;4.00;;;18.00;99.90;;;;;;4881101;29;20536;-71
2021/09/22 16:16:29;;;;;;;5.00;4.57;;;17.90;99.90;;;;;;4879907;29;20476;-72
2021/09/22 16:18:56;;;;;;;4.73;4.23;;;17.80;99.90;;;;;;4880939;29;20949;-71
2021/09/22 16:21:23;;;;;;;5.03;4.83;;;17.80;99.90;;;;;;4880362;29;20551;-72
2021/09/22 16:23:51;;;;;;;5.27;4.80;;;17.80;99.90;;;;;;4880363;29;21038;-71
2021/09/22 16:26:17;;;;;;;5.07;4.63;;;17.70;99.90;;;;;;4880219;29;20953;-72
2021/09/22 16:28:44;;;;;;;5.50;5.20;;;17.60;99.90;;;;;;4880533;29;20852;-71
2021/09/22 16:31:11;;;;;;;4.37;4.17;;;17.60;99.90;;;;;;4880150;29;20492;-73
2021/09/22 16:33:38;;;;;;;5.00;4.70;;;17.50;99.90;;;;;;4880047;29;20468;-72
2021/09/22 16:36:05;;;;;;;4.57;4.30;;;17.40;99.90;;;;;;4880108;29;20472;-72
2021/09/22 16:38:31;;;;;;;7.17;4.60;;;17.40;99.90;;;;;;4880688;29;20460;-72
2021/09/22 16:40:59;;;;;;;5.30;4.80;;;17.40;99.90;;;;;;4880228;29;20525;-71
2021/09/22 16:43:26;;;;;;;5.40;5.00;;;17.30;99.90;;;;;;4880155;29;20477;-72
2021/09/22 16:45:55;;;;;;;5.00;4.60;;;17.20;99.90;;;;;;4879942;29;20961;-73
2021/09/22 16:48:21;;;;;;;5.30;5.00;;;17.20;99.90;;;;;;4880097;29;20656;-71
2021/09/22 16:50:48;;;;;;;5.33;4.83;;;17.10;99.90;;;;;;4881561;29;20488;-71
2021/09/22 16:53:16;;;;;;;5.40;5.10;;;17.00;99.90;;;;;;4880047;29;20472;-72